createdAt,value
2018-07-11T00:01:46.263Z,17.10
2018-07-11T00:04:14.473Z,17.10
2018-07-11T00:06:42.668Z,17.00
2018-07-11T00:09:11.010Z,17.00
2018-07-11T00:11:39.214Z,17.00
2018-07-11T00:14:07.438Z,16.90
2018-07-11T00:16:35.661Z,16.90
2018-07-11T00:19:03.866Z,16.80
2018-07-11T00:21:32.111Z,16.80
2018-07-11T00:24:00.323Z,16.80
2018-07-11T00:26:28.550Z,16.70
2018-07-11T00:28:56.764Z,16.60
2018-07-11T00:31:25.006Z,16.60
2018-07-11T00:33:53.218Z,16.60
2018-07-11T00:38:49.366Z,16.60
2018-07-11T00:41:17.589Z,16.60
2018-07-11T00:43:45.789Z,16.60
2018-07-11T00:46:16.038Z,16.60
2018-07-11T00:48:44.275Z,16.50
2018-07-11T00:51:12.562Z,16.50
2018-07-11T00:53:40.812Z,16.40
2018-07-11T00:56:09.087Z,16.30
2018-07-11T00:58:44.362Z,16.30
2018-07-11T01:01:15.650Z,16.30
2018-07-11T01:03:49.718Z,16.30
2018-07-11T01:06:18.471Z,16.30
2018-07-11T01:08:47.227Z,16.20
2018-07-11T01:11:16.989Z,16.20
2018-07-11T01:13:46.654Z,16.20
2018-07-11T01:16:16.312Z,16.20
2018-07-11T01:18:55.305Z,16.10
2018-07-11T01:21:23.545Z,16.00
2018-07-11T01:23:51.795Z,16.00
2018-07-11T01:26:23.639Z,15.90
2018-07-11T01:31:19.685Z,15.80
2018-07-11T01:33:47.822Z,15.80
2018-07-11T01:36:16.093Z,15.70
2018-07-11T01:38:44.278Z,15.60
2018-07-11T01:41:12.582Z,15.60
2018-07-11T01:43:40.729Z,15.50
2018-07-11T01:46:08.945Z,15.50
2018-07-11T01:48:37.118Z,15.50
2018-07-11T01:51:05.267Z,15.50
2018-07-11T01:53:33.407Z,15.50
2018-07-11T01:56:01.570Z,15.40
2018-07-11T01:58:30.020Z,15.40
2018-07-11T02:00:58.162Z,15.40
2018-07-11T02:03:26.302Z,15.30
2018-07-11T02:08:23.598Z,15.20
2018-07-11T02:10:51.954Z,15.20
2018-07-11T02:13:20.098Z,15.20
2018-07-11T02:15:49.222Z,15.10
2018-07-11T02:18:20.142Z,15.10
2018-07-11T02:20:48.278Z,15.10
2018-07-11T02:23:16.658Z,15.10
2018-07-11T02:25:44.858Z,15.10
2018-07-11T02:28:13.004Z,15.10
2018-07-11T02:30:41.160Z,15.00
2018-07-11T02:33:09.338Z,15.10
2018-07-11T02:35:37.477Z,15.00
2018-07-11T02:38:05.606Z,15.10
2018-07-11T02:43:01.825Z,15.00
2018-07-11T02:45:29.986Z,15.00
2018-07-11T02:47:58.210Z,15.00
2018-07-11T02:50:26.430Z,15.00
2018-07-11T02:52:54.625Z,15.00
2018-07-11T02:55:22.837Z,14.90
2018-07-11T02:57:51.067Z,15.00
2018-07-11T03:00:19.268Z,14.90
2018-07-11T03:02:47.501Z,14.90
2018-07-11T03:05:16.366Z,14.90
2018-07-11T03:07:44.597Z,14.80
2018-07-11T03:10:12.828Z,14.80
2018-07-11T03:12:41.026Z,14.80
2018-07-11T03:15:09.222Z,14.70
2018-07-11T03:17:37.962Z,14.70
2018-07-11T03:20:06.378Z,14.60
2018-07-11T03:22:34.562Z,14.70
2018-07-11T03:25:02.762Z,14.70
2018-07-11T03:27:30.958Z,14.70
2018-07-11T03:29:59.169Z,14.60
2018-07-11T03:32:27.433Z,14.70
2018-07-11T03:34:55.586Z,14.70
2018-07-11T03:37:23.802Z,14.70
2018-07-11T03:39:52.035Z,14.70
2018-07-11T03:42:20.251Z,14.70
2018-07-11T03:44:48.447Z,14.60
2018-07-11T03:47:16.643Z,14.60
2018-07-11T03:49:44.822Z,14.60
2018-07-11T03:52:13.381Z,14.60
2018-07-11T03:54:41.571Z,14.60
2018-07-11T03:59:37.715Z,14.60
2018-07-11T04:02:06.580Z,14.50
2018-07-11T04:04:34.788Z,14.50
2018-07-11T04:07:02.990Z,14.50
2018-07-11T04:09:31.186Z,14.50
2018-07-11T04:11:59.377Z,14.50
2018-07-11T04:14:27.607Z,14.60
2018-07-11T04:16:55.810Z,14.50
2018-07-11T04:19:24.745Z,14.50
2018-07-11T04:21:52.929Z,14.50
2018-07-11T04:24:21.175Z,14.50
2018-07-11T04:26:49.386Z,14.50
2018-07-11T04:29:17.863Z,14.50
2018-07-11T04:31:46.054Z,14.50
2018-07-11T04:34:14.249Z,14.50
2018-07-11T04:36:42.819Z,14.50
2018-07-11T04:39:11.006Z,14.50
2018-07-11T04:41:39.218Z,14.50
2018-07-11T04:44:07.422Z,14.50
2018-07-11T04:46:36.069Z,14.50
2018-07-11T04:49:04.398Z,14.50
2018-07-11T04:51:32.649Z,14.50
2018-07-11T04:54:00.858Z,14.50
2018-07-11T04:56:29.102Z,14.50
2018-07-11T04:58:57.242Z,14.50
2018-07-11T05:01:25.431Z,14.60
2018-07-11T05:03:53.563Z,14.60
2018-07-11T05:06:21.714Z,14.60
2018-07-11T05:08:49.853Z,14.70
2018-07-11T05:11:18.098Z,14.70
2018-07-11T05:13:46.122Z,14.80
2018-07-11T05:16:14.361Z,14.80
2018-07-11T05:18:42.485Z,14.80
2018-07-11T05:21:10.708Z,14.80
2018-07-11T05:23:38.919Z,14.90
2018-07-11T05:26:07.060Z,14.90
2018-07-11T05:28:36.117Z,14.90
2018-07-11T05:31:04.286Z,15.00
2018-07-11T05:36:00.494Z,15.10
2018-07-11T05:38:28.678Z,15.20
2018-07-11T05:40:56.842Z,15.20
2018-07-11T05:43:25.026Z,15.30
2018-07-11T05:45:53.242Z,15.30
2018-07-11T05:48:22.071Z,15.30
2018-07-11T05:50:50.265Z,15.40
2018-07-11T05:53:18.417Z,15.40
2018-07-11T05:55:46.672Z,15.50
2018-07-11T05:58:14.838Z,15.60
2018-07-11T06:00:43.035Z,15.60
2018-07-11T06:03:11.273Z,15.70
2018-07-11T06:05:39.471Z,15.70
2018-07-11T06:08:07.679Z,15.80
2018-07-11T06:10:35.941Z,15.80
2018-07-11T06:15:32.152Z,15.90
2018-07-11T06:18:00.349Z,15.90
2018-07-11T06:20:28.546Z,15.90
2018-07-11T06:22:56.799Z,16.00
2018-07-11T06:25:25.105Z,16.00
2018-07-11T06:27:53.369Z,16.00
2018-07-11T06:30:21.546Z,16.10
2018-07-11T06:32:49.741Z,16.10
2018-07-11T06:35:17.930Z,16.20
2018-07-11T06:37:46.158Z,16.20
2018-07-11T06:40:14.377Z,16.30
2018-07-11T06:42:42.566Z,16.30
2018-07-11T06:45:10.886Z,16.40
2018-07-11T06:47:39.097Z,16.40
2018-07-11T06:50:07.277Z,16.50
2018-07-11T06:52:35.609Z,16.50
2018-07-11T06:55:03.858Z,16.60
2018-07-11T07:00:00.001Z,16.70
2018-07-11T07:02:28.175Z,16.80
2018-07-11T07:04:56.373Z,16.80
2018-07-11T07:07:24.578Z,16.90
2018-07-11T07:09:52.769Z,17.00
2018-07-11T07:12:20.966Z,17.10
2018-07-11T07:14:49.162Z,17.10
2018-07-11T07:17:17.383Z,17.10
2018-07-11T07:19:45.590Z,17.20
2018-07-11T07:22:13.787Z,17.30
2018-07-11T07:24:42.010Z,17.40
2018-07-11T07:27:10.205Z,17.40
2018-07-11T07:29:38.393Z,17.50
2018-07-11T07:32:06.598Z,17.50
2018-07-11T07:34:34.813Z,17.60
2018-07-11T07:37:03.038Z,17.70
2018-07-11T07:39:31.317Z,17.80
2018-07-11T07:41:59.510Z,17.90
2018-07-11T07:44:28.522Z,18.00
2018-07-11T07:46:59.683Z,18.00
2018-07-11T07:49:28.674Z,18.20
2018-07-11T07:51:57.263Z,18.30
2018-07-11T07:56:53.561Z,18.50
2018-07-11T07:59:22.194Z,18.60
2018-07-11T08:01:50.594Z,18.90
2018-07-11T08:04:18.795Z,19.20
2018-07-11T08:06:47.030Z,19.60
2018-07-11T08:09:15.546Z,20.00
2018-07-11T08:11:43.745Z,20.30
2018-07-11T08:14:12.050Z,20.70
2018-07-11T08:16:40.255Z,20.90
2018-07-11T08:19:08.438Z,21.00
2018-07-11T08:21:36.718Z,20.90
2018-07-11T08:24:16.477Z,20.80
2018-07-11T08:26:55.954Z,20.60
2018-07-11T08:29:35.958Z,20.60
2018-07-11T08:34:33.792Z,20.60
2018-07-11T08:37:10.287Z,20.50
2018-07-11T08:40:06.313Z,20.40
2018-07-11T08:43:03.394Z,20.40
2018-07-11T08:46:17.986Z,20.40
2018-07-11T08:48:58.073Z,20.40
2018-07-11T08:51:39.214Z,20.30
2018-07-11T08:54:20.150Z,20.40
2018-07-11T08:56:58.211Z,20.50
2018-07-11T08:59:43.149Z,20.60
2018-07-11T09:02:23.197Z,20.70
2018-07-11T09:05:05.151Z,20.80
2018-07-11T09:07:46.617Z,20.90
2018-07-11T09:11:32.407Z,21.00
2018-07-11T09:14:12.061Z,21.20
2018-07-11T09:16:52.506Z,21.30
2018-07-11T09:20:31.626Z,21.20
2018-07-11T09:23:12.853Z,21.20
2018-07-11T09:25:41.122Z,21.30
2018-07-11T09:28:09.427Z,21.40
2018-07-11T09:30:37.644Z,21.60
2018-07-11T09:33:05.821Z,21.70
2018-07-11T09:35:34.049Z,21.80
2018-07-11T09:38:02.249Z,21.90
2018-07-11T09:40:30.449Z,21.90
2018-07-11T09:42:58.646Z,21.90
2018-07-11T09:45:26.926Z,22.00
2018-07-11T09:47:55.172Z,22.00
2018-07-11T09:50:23.365Z,22.00
2018-07-11T09:52:51.577Z,22.00
2018-07-11T09:55:19.790Z,21.90
2018-07-11T09:57:48.269Z,21.90
2018-07-11T10:00:21.918Z,21.80
2018-07-11T10:02:50.142Z,21.80
2018-07-11T10:05:18.393Z,21.70
2018-07-11T10:07:46.589Z,21.70
2018-07-11T10:10:14.803Z,21.60
2018-07-11T10:12:42.986Z,21.40
2018-07-11T10:15:11.178Z,21.40
2018-07-11T10:17:39.384Z,21.30
2018-07-11T10:20:07.654Z,21.20
2018-07-11T10:22:35.858Z,21.20
2018-07-11T10:25:04.131Z,21.30
2018-07-11T10:27:32.325Z,21.40
2018-07-11T10:30:00.517Z,21.50
2018-07-11T10:32:28.721Z,21.60
2018-07-11T10:34:56.950Z,21.70
2018-07-11T10:37:25.298Z,21.70
2018-07-11T10:39:53.498Z,21.80
2018-07-11T10:42:21.766Z,21.80
2018-07-11T10:44:50.001Z,21.90
2018-07-11T10:47:18.202Z,21.90
2018-07-11T10:49:46.397Z,21.90
2018-07-11T10:52:14.589Z,21.90
2018-07-11T10:54:42.782Z,21.90
2018-07-11T10:57:10.996Z,22.00
2018-07-11T10:59:39.185Z,22.10
2018-07-11T11:02:07.417Z,22.20
2018-07-11T11:04:35.654Z,22.30
2018-07-11T11:07:03.888Z,22.10
2018-07-11T11:09:32.066Z,22.00
2018-07-11T11:12:00.292Z,21.90
2018-07-11T11:14:28.453Z,21.80
2018-07-11T11:16:56.642Z,21.70
2018-07-11T11:19:24.891Z,21.60
2018-07-11T11:21:53.074Z,21.40
2018-07-11T11:24:21.278Z,21.30
2018-07-11T11:26:49.486Z,21.10
2018-07-11T11:29:17.702Z,21.00
2018-07-11T11:31:45.936Z,20.90
2018-07-11T11:34:14.138Z,20.80
2018-07-11T11:36:42.452Z,20.80
2018-07-11T11:39:10.637Z,20.70
2018-07-11T11:41:39.007Z,20.70
2018-07-11T11:44:07.077Z,20.70
2018-07-11T11:46:35.282Z,20.70
2018-07-11T11:49:03.509Z,20.70
2018-07-11T11:51:31.710Z,20.70
2018-07-11T11:53:59.919Z,20.70
2018-07-11T11:56:28.070Z,20.70
2018-07-11T11:58:56.222Z,20.70
2018-07-11T12:01:24.362Z,20.80
2018-07-11T12:03:52.511Z,20.70
2018-07-11T12:06:20.641Z,20.70
2018-07-11T12:08:48.790Z,20.70
2018-07-11T12:11:16.911Z,20.70
2018-07-11T12:13:45.043Z,20.70
2018-07-11T12:16:13.186Z,20.60
2018-07-11T12:18:41.329Z,20.60
2018-07-11T12:21:09.531Z,20.50
2018-07-11T12:23:37.642Z,20.50
2018-07-11T12:26:08.786Z,20.40
2018-07-11T12:31:05.441Z,20.30
2018-07-11T12:33:33.846Z,20.30
2018-07-11T12:36:02.209Z,20.20
2018-07-11T12:38:30.486Z,20.20
2018-07-11T12:43:27.400Z,20.10
2018-07-11T12:45:56.179Z,20.10
2018-07-11T12:49:31.522Z,20.10
2018-07-11T12:51:59.670Z,20.10
2018-07-11T12:54:27.814Z,20.10
2018-07-11T12:56:56.043Z,20.20
2018-07-11T12:59:25.181Z,20.10
2018-07-11T13:01:53.425Z,20.10
2018-07-11T13:04:22.865Z,20.10
2018-07-11T13:06:51.182Z,20.20
2018-07-11T13:09:19.394Z,20.20
2018-07-11T13:11:47.611Z,20.20
2018-07-11T13:16:43.800Z,20.20
2018-07-11T13:19:11.934Z,20.20
2018-07-11T13:21:40.186Z,20.20
2018-07-11T13:24:08.350Z,20.20
2018-07-11T13:26:36.554Z,20.20
2018-07-11T13:29:04.834Z,20.20
2018-07-11T13:31:33.037Z,20.10
2018-07-11T13:34:01.186Z,20.00
2018-07-11T13:36:29.417Z,20.00
2018-07-11T13:38:57.537Z,19.90
2018-07-11T13:41:25.693Z,19.70
2018-07-11T13:43:53.867Z,19.70
2018-07-11T13:46:22.042Z,19.60
2018-07-11T13:48:50.182Z,19.60
2018-07-11T13:51:18.346Z,19.60
2018-07-11T13:53:46.639Z,19.60
2018-07-11T13:58:44.037Z,19.60
2018-07-11T14:01:12.226Z,19.50
2018-07-11T14:03:40.458Z,19.50
2018-07-11T14:06:08.854Z,19.50
2018-07-11T14:08:37.157Z,19.40
2018-07-11T14:11:05.708Z,19.40
2018-07-11T14:13:34.110Z,19.40
2018-07-11T14:16:02.542Z,19.40
2018-07-11T14:18:30.784Z,19.30
2018-07-11T14:20:58.986Z,19.30
2018-07-11T14:23:36.491Z,19.40
2018-07-11T14:26:04.909Z,19.40
2018-07-11T14:28:33.417Z,19.50
2018-07-11T14:31:02.196Z,19.50
2018-07-11T14:33:31.446Z,19.50
2018-07-11T14:36:00.320Z,19.50
2018-07-11T14:38:29.193Z,19.50
2018-07-11T14:40:59.926Z,19.50
2018-07-11T14:43:28.285Z,19.50
2018-07-11T14:45:56.579Z,19.60
2018-07-11T14:48:24.791Z,19.60
2018-07-11T14:50:53.007Z,19.50
2018-07-11T14:53:21.330Z,19.60
2018-07-11T14:55:49.549Z,19.50
2018-07-11T14:58:17.787Z,19.50
2018-07-11T15:00:45.957Z,19.50
2018-07-11T15:05:42.158Z,19.50
2018-07-11T15:08:10.398Z,19.40
2018-07-11T15:10:38.557Z,19.40
2018-07-11T15:13:06.879Z,19.40
2018-07-11T15:15:35.158Z,19.40
2018-07-11T15:18:03.395Z,19.50
2018-07-11T15:20:31.606Z,19.40
2018-07-11T15:22:59.858Z,19.40
2018-07-11T15:25:28.010Z,19.40
2018-07-11T15:27:56.355Z,19.40
2018-07-11T15:30:24.538Z,19.30
2018-07-11T15:32:52.741Z,19.30
2018-07-11T15:35:20.966Z,19.40
2018-07-11T15:37:49.214Z,19.40
2018-07-11T15:40:17.425Z,19.40
2018-07-11T15:45:13.959Z,19.30
2018-07-11T15:47:43.990Z,19.40
2018-07-11T15:50:12.445Z,19.40
2018-07-11T15:52:40.934Z,19.40
2018-07-11T15:55:09.103Z,19.40
2018-07-11T15:57:43.522Z,19.40
2018-07-11T16:00:13.278Z,19.50
2018-07-11T16:02:42.735Z,19.50
2018-07-11T16:05:13.473Z,19.50
2018-07-11T16:07:44.455Z,19.50
2018-07-11T16:10:12.607Z,19.60
2018-07-11T16:12:40.778Z,19.60
2018-07-11T16:15:08.937Z,19.60
2018-07-11T16:17:37.166Z,19.60
2018-07-11T16:20:05.315Z,19.60
2018-07-11T16:22:33.586Z,19.60
2018-07-11T16:25:01.755Z,19.60
2018-07-11T16:27:29.919Z,19.50
2018-07-11T16:29:58.049Z,19.50
2018-07-11T16:32:26.248Z,19.50
2018-07-11T16:34:54.426Z,19.50
2018-07-11T16:37:22.554Z,19.50
2018-07-11T16:39:50.773Z,19.50
2018-07-11T16:42:18.965Z,19.50
2018-07-11T16:44:48.059Z,19.50
2018-07-11T16:47:16.570Z,19.60
2018-07-11T16:49:44.734Z,19.60
2018-07-11T16:52:13.949Z,19.70
2018-07-11T16:54:43.105Z,19.70
2018-07-11T16:57:13.319Z,19.70
2018-07-11T16:59:49.893Z,19.70
2018-07-11T17:02:22.281Z,19.70
2018-07-11T17:07:21.098Z,19.70
2018-07-11T17:09:50.693Z,19.70
2018-07-11T17:12:19.700Z,19.70
2018-07-11T17:14:48.385Z,19.70
2018-07-11T17:17:18.618Z,19.70
2018-07-11T17:19:57.522Z,19.60
2018-07-11T17:22:27.962Z,19.60
2018-07-11T17:27:24.946Z,19.60
2018-07-11T17:29:57.542Z,19.60
2018-07-11T17:32:25.786Z,19.50
2018-07-11T17:34:54.373Z,19.50
2018-07-11T17:37:26.350Z,19.50
2018-07-11T17:39:56.761Z,19.50
2018-07-11T17:42:28.337Z,19.50
2018-07-11T17:45:18.377Z,19.50
2018-07-11T17:48:00.205Z,19.50
2018-07-11T17:50:29.274Z,19.50
2018-07-11T17:53:18.252Z,19.60
2018-07-11T17:58:21.413Z,19.60
2018-07-11T18:00:53.927Z,19.60
2018-07-11T18:05:33.162Z,19.60
2018-07-11T18:08:05.970Z,19.50
2018-07-11T18:10:46.735Z,19.50
2018-07-11T18:13:21.350Z,19.60
2018-07-11T18:15:58.153Z,19.50
2018-07-11T18:18:46.646Z,19.50
2018-07-11T18:21:24.682Z,19.40
2018-07-11T18:24:09.570Z,19.40
2018-07-11T18:30:01.373Z,19.40
2018-07-11T18:34:46.680Z,19.40
2018-07-11T18:37:58.944Z,19.40
2018-07-11T18:40:32.649Z,19.40
2018-07-11T18:45:47.938Z,19.40
2018-07-11T18:48:27.329Z,19.40
2018-07-11T18:51:05.655Z,19.40
2018-07-11T18:53:47.907Z,19.30
2018-07-11T18:56:31.889Z,19.40
2018-07-11T18:59:19.542Z,19.30
2018-07-11T19:01:59.905Z,19.30
2018-07-11T19:04:44.030Z,19.30
2018-07-11T19:07:20.175Z,19.30
2018-07-11T19:09:57.973Z,19.30
2018-07-11T19:12:28.023Z,19.40
2018-07-11T19:15:12.307Z,19.30
2018-07-11T19:18:06.228Z,18.40
2018-07-11T19:20:37.457Z,19.30
2018-07-11T19:23:14.483Z,19.20
2018-07-11T19:25:55.934Z,19.30
2018-07-11T19:29:34.469Z,19.30
2018-07-11T19:32:12.019Z,19.20
2018-07-11T19:35:51.938Z,19.30
2018-07-11T19:38:41.582Z,19.20
2018-07-11T19:41:24.600Z,19.20
2018-07-11T19:44:06.369Z,19.10
2018-07-11T19:48:51.871Z,19.10
2018-07-11T19:51:42.875Z,19.10
2018-07-11T19:54:17.197Z,19.00
2018-07-11T19:56:47.233Z,19.10
2018-07-11T19:59:15.710Z,19.00
2018-07-11T20:01:44.211Z,19.00
2018-07-11T20:04:13.532Z,19.00
2018-07-11T20:06:41.883Z,18.90
2018-07-11T20:09:10.312Z,19.00
2018-07-11T20:11:38.562Z,18.90
2018-07-11T20:14:07.085Z,18.90
2018-07-11T20:16:35.366Z,18.90
2018-07-11T20:19:03.626Z,18.90
2018-07-11T20:21:32.000Z,18.90
2018-07-11T20:24:00.574Z,18.90
2018-07-11T20:28:57.214Z,18.90
2018-07-11T20:31:25.682Z,18.90
2018-07-11T20:33:54.061Z,18.90
2018-07-11T20:36:22.267Z,18.80
2018-07-11T20:38:50.470Z,18.90
2018-07-11T20:41:18.705Z,18.80
2018-07-11T20:43:46.930Z,18.80
2018-07-11T20:46:15.522Z,18.80
2018-07-11T20:48:43.754Z,18.90
2018-07-11T20:51:11.951Z,18.90
2018-07-11T20:53:40.230Z,18.90
2018-07-11T20:56:08.389Z,18.80
2018-07-11T20:58:48.076Z,18.80
2018-07-11T21:01:27.778Z,18.80
2018-07-11T21:04:12.038Z,18.70
2018-07-11T21:06:51.978Z,18.80
2018-07-11T21:09:49.374Z,18.80
2018-07-11T21:12:29.177Z,18.80
2018-07-11T21:15:07.702Z,18.80
2018-07-11T21:18:47.597Z,18.90
2018-07-11T21:21:15.786Z,18.80
2018-07-11T21:23:43.938Z,18.80
2018-07-11T21:26:12.079Z,18.90
2018-07-11T21:28:40.211Z,18.90
2018-07-11T21:31:08.390Z,18.90
2018-07-11T21:33:36.546Z,18.80
2018-07-11T21:36:04.693Z,18.80
2018-07-11T21:38:32.849Z,18.80
2018-07-11T21:41:01.020Z,18.80
2018-07-11T21:43:29.185Z,18.70
2018-07-11T21:45:57.590Z,18.70
2018-07-11T21:48:25.726Z,18.70
2018-07-11T21:50:53.878Z,18.70
2018-07-11T21:53:22.016Z,18.70
2018-07-11T21:55:50.233Z,18.60
2018-07-11T21:58:18.685Z,18.60
2018-07-11T22:00:46.918Z,18.60
2018-07-11T22:03:15.107Z,18.60
2018-07-11T22:05:43.318Z,18.60
2018-07-11T22:08:11.505Z,18.60
2018-07-11T22:10:40.151Z,18.60
2018-07-11T22:13:08.826Z,18.70
2018-07-11T22:15:37.022Z,18.70
2018-07-11T22:18:16.954Z,18.70
2018-07-11T22:20:44.158Z,18.70
2018-07-11T22:23:11.354Z,18.70
2018-07-11T22:25:38.550Z,18.70
2018-07-11T22:28:05.742Z,18.60
2018-07-11T22:30:32.970Z,18.60
2018-07-11T22:33:00.162Z,18.60
2018-07-11T22:35:27.375Z,18.60
2018-07-11T22:37:54.573Z,18.60
2018-07-11T22:40:21.759Z,18.60
2018-07-11T22:45:16.469Z,18.60
2018-07-11T22:47:43.665Z,18.50
2018-07-11T22:50:10.862Z,18.50
2018-07-11T22:52:38.168Z,18.50
2018-07-11T22:55:05.255Z,18.60
2018-07-11T22:57:32.450Z,18.50
2018-07-11T22:59:59.642Z,18.50
2018-07-11T23:02:26.841Z,18.60
2018-07-11T23:04:54.038Z,18.50
2018-07-11T23:07:21.234Z,18.50
2018-07-11T23:09:48.430Z,18.40
2018-07-11T23:12:15.638Z,18.40
2018-07-11T23:14:42.828Z,18.40
2018-07-11T23:19:38.311Z,18.50
2018-07-11T23:22:05.519Z,18.40
2018-07-11T23:24:32.715Z,18.40
2018-07-11T23:26:59.921Z,18.50
2018-07-11T23:29:27.122Z,18.40
2018-07-11T23:31:54.310Z,18.40
2018-07-11T23:34:21.514Z,18.40
2018-07-11T23:36:48.714Z,18.40
2018-07-11T23:39:15.975Z,18.40
2018-07-11T23:41:43.169Z,18.40
2018-07-11T23:44:10.374Z,18.40
2018-07-11T23:46:37.558Z,18.30
2018-07-11T23:49:04.767Z,18.30
2018-07-11T23:51:31.982Z,18.30
2018-07-11T23:53:59.186Z,18.30
2018-07-11T23:56:26.422Z,18.30
2018-07-11T23:58:53.631Z,18.30
